Time;durP1;ratioP1;P1;durP2;ratioP2;P2;SDS_P1;SDS_P2;PMS_P1;PMS_P2;Temp;Humidity;BMP_temperature;BMP_pressure;BME280_temperature;BME280_humidity;BME280_pressure;Samples;Min_cycle;Max_cycle;Signal;HPM_P1;HPM_P2
2022/04/14 00:00:38;;;;;;;23.75;17.90;;;15.30;99.90;;;;;;5069617;28;20265;-37
2022/04/14 00:03:07;;;;;;;21.95;17.83;;;15.30;99.90;;;;;;5059028;28;20237;-37
2022/04/14 00:05:39;;;;;;;21.53;17.93;;;15.20;99.90;;;;;;5053267;28;20196;-37
2022/04/14 00:08:11;;;;;;;20.45;17.20;;;15.20;99.90;;;;;;5066143;28;20207;-37
2022/04/14 00:10:38;;;;;;;23.02;17.73;;;15.10;99.90;;;;;;5067547;28;20241;-37
2022/04/14 00:13:06;;;;;;;24.08;17.73;;;15.10;99.90;;;;;;5059698;28;20216;-37
2022/04/14 00:15:33;;;;;;;21.63;17.40;;;15.10;99.90;;;;;;5049069;28;20741;-37
2022/04/14 00:18:00;;;;;;;24.23;18.20;;;15.00;99.90;;;;;;5048846;28;20211;-37
2022/04/14 00:20:30;;;;;;;24.40;16.83;;;15.00;99.90;;;;;;5048489;28;20216;-37
2022/04/14 00:22:59;;;;;;;21.08;16.83;;;15.00;99.90;;;;;;5054399;28;20272;-37
2022/04/14 00:25:27;;;;;;;21.52;16.70;;;15.00;99.90;;;;;;5060286;28;20199;-37
2022/04/14 00:27:54;;;;;;;25.15;17.75;;;14.90;99.90;;;;;;5060698;28;20545;-37
2022/04/14 00:30:21;;;;;;;20.60;16.77;;;14.90;99.90;;;;;;5052538;28;20224;-37
2022/04/14 00:32:51;;;;;;;20.67;17.13;;;14.90;99.90;;;;;;5047679;28;20196;-37
2022/04/14 00:35:21;;;;;;;21.23;17.60;;;14.90;99.90;;;;;;5051407;28;20207;-37
2022/04/14 00:37:50;;;;;;;20.25;16.45;;;14.90;99.90;;;;;;5067900;28;20259;-37
2022/04/14 00:40:17;;;;;;;22.23;17.77;;;14.90;99.90;;;;;;5068868;28;20697;-37
2022/04/14 00:42:51;;;;;;;22.63;18.07;;;14.90;99.90;;;;;;5068165;28;20678;-37
2022/04/14 00:45:18;;;;;;;25.70;18.08;;;14.80;99.90;;;;;;5048601;28;20273;-37
2022/04/14 00:47:52;;;;;;;22.80;18.27;;;14.80;99.90;;;;;;5071849;28;20290;-37
2022/04/14 00:50:22;;;;;;;20.65;17.88;;;14.80;99.90;;;;;;5062052;28;20260;-37
2022/04/14 00:52:50;;;;;;;22.80;17.90;;;14.80;99.90;;;;;;5068001;28;20215;-37
2022/04/14 00:55:17;;;;;;;23.05;16.98;;;14.80;99.90;;;;;;5064226;28;20349;-37
2022/04/14 00:57:49;;;;;;;23.73;18.35;;;14.70;99.90;;;;;;5053401;28;20273;-37
2022/04/14 01:00:17;;;;;;;21.50;17.53;;;14.70;99.90;;;;;;5065149;28;20188;-37
2022/04/14 01:02:44;;;;;;;22.67;18.73;;;14.70;99.90;;;;;;5068202;28;20665;-37
2022/04/14 01:05:12;;;;;;;21.63;17.83;;;14.70;99.90;;;;;;5064362;28;20226;-37
2022/04/14 01:07:44;;;;;;;24.67;17.40;;;14.70;99.90;;;;;;5062696;28;20310;-37
2022/04/14 01:10:18;;;;;;;21.88;18.90;;;14.70;99.90;;;;;;5066254;28;20253;-37
2022/04/14 01:12:50;;;;;;;23.93;17.90;;;14.70;99.90;;;;;;5067561;28;20207;-37
2022/04/14 01:15:18;;;;;;;22.70;17.53;;;14.70;99.90;;;;;;5054697;28;20576;-37
2022/04/14 01:17:45;;;;;;;20.70;17.53;;;14.60;99.90;;;;;;5066121;28;20293;-37
2022/04/14 01:20:14;;;;;;;22.77;17.50;;;14.60;99.90;;;;;;5067465;28;20196;-37
2022/04/14 01:22:56;;;;;;;22.87;18.40;;;14.60;99.90;;;;;;5065077;28;20738;-37
2022/04/14 01:25:25;;;;;;;22.67;18.63;;;14.60;99.90;;;;;;5065517;28;20203;-38
2022/04/14 01:27:53;;;;;;;22.20;18.23;;;14.60;99.90;;;;;;5063461;28;20223;-37
2022/04/14 01:30:21;;;;;;;22.25;17.95;;;14.60;99.90;;;;;;5057898;28;20260;-37
2022/04/14 01:32:49;;;;;;;23.02;18.42;;;14.60;99.90;;;;;;5062167;28;20667;-37
2022/04/14 01:35:16;;;;;;;20.10;17.07;;;14.50;99.90;;;;;;5048462;28;20243;-37
2022/04/14 01:37:48;;;;;;;21.92;18.40;;;14.50;99.90;;;;;;5067908;28;20223;-37
2022/04/14 01:40:15;;;;;;;21.20;17.57;;;14.50;99.90;;;;;;5061635;28;20257;-37
2022/04/14 01:42:43;;;;;;;20.50;16.55;;;14.50;99.90;;;;;;5048925;28;20200;-37
2022/04/14 01:45:13;;;;;;;22.43;17.80;;;14.50;99.90;;;;;;5047197;28;20558;-37
2022/04/14 01:47:44;;;;;;;22.77;17.77;;;14.50;99.90;;;;;;5057034;28;20577;-37
2022/04/14 01:50:18;;;;;;;19.40;15.90;;;14.50;99.90;;;;;;5066143;28;20199;-37
2022/04/14 01:52:46;;;;;;;21.65;17.63;;;14.50;99.90;;;;;;5050650;28;20230;-39
2022/04/14 01:55:15;;;;;;;20.30;16.90;;;14.50;99.90;;;;;;5049464;28;20365;-37
2022/04/14 01:57:42;;;;;;;21.02;17.38;;;14.40;99.90;;;;;;5055116;28;20220;-37
2022/04/14 02:00:14;;;;;;;20.80;17.33;;;14.40;99.90;;;;;;5064999;28;20199;-37
2022/04/14 02:02:43;;;;;;;20.80;17.20;;;14.40;99.90;;;;;;5065371;28;20237;-37
2022/04/14 02:05:13;;;;;;;19.93;17.13;;;14.40;99.90;;;;;;5066618;28;20329;-37
2022/04/14 02:07:45;;;;;;;20.15;16.80;;;14.40;99.90;;;;;;5057198;28;20552;-37
2022/04/14 02:10:17;;;;;;;20.70;16.43;;;14.40;99.90;;;;;;5058360;28;20816;-37
2022/04/14 02:12:46;;;;;;;20.03;17.13;;;14.40;99.90;;;;;;5065449;28;20651;-37
2022/04/14 02:15:14;;;;;;;20.83;16.20;;;14.40;99.90;;;;;;5055998;28;20666;-36
2022/04/14 02:17:41;;;;;;;22.57;18.10;;;14.30;99.90;;;;;;5064306;28;20323;-37
2022/04/14 02:20:08;;;;;;;17.58;15.55;;;14.30;99.90;;;;;;5059340;28;20246;-40
2022/04/14 02:22:44;;;;;;;20.80;16.63;;;14.30;99.90;;;;;;5066607;28;20214;-38
2022/04/14 02:25:13;;;;;;;20.38;16.70;;;14.30;99.90;;;;;;5064305;28;21038;-37
2022/04/14 02:27:40;;;;;;;20.88;16.90;;;14.30;99.90;;;;;;5066327;28;20591;-37
2022/04/14 02:30:11;;;;;;;18.75;16.08;;;14.20;99.90;;;;;;5065879;28;20200;-38
2022/04/14 02:32:38;;;;;;;19.80;16.60;;;14.20;99.90;;;;;;5065104;28;20589;-38
2022/04/14 02:35:09;;;;;;;22.13;18.40;;;14.20;99.90;;;;;;5066707;28;20200;-37
2022/04/14 02:37:37;;;;;;;19.83;16.97;;;14.20;99.90;;;;;;5066094;28;20242;-38
2022/04/14 02:40:05;;;;;;;20.93;17.70;;;14.20;99.90;;;;;;5060713;28;20277;-37
2022/04/14 02:42:32;;;;;;;21.33;16.90;;;14.20;99.90;;;;;;5069405;28;20539;-37
2022/04/14 02:45:05;;;;;;;23.17;17.27;;;14.20;99.90;;;;;;5068471;28;20653;-37
2022/04/14 02:47:39;;;;;;;21.57;16.60;;;14.20;99.90;;;;;;5065932;28;20191;-38
2022/04/14 02:50:07;;;;;;;19.65;16.48;;;14.10;99.90;;;;;;5068264;28;20604;-38
2022/04/14 02:52:36;;;;;;;21.53;17.60;;;14.10;99.90;;;;;;5060905;28;20191;-38
2022/04/14 02:55:09;;;;;;;22.90;18.47;;;14.10;99.90;;;;;;5068804;28;20244;-37
2022/04/14 02:57:36;;;;;;;24.60;18.27;;;14.10;99.90;;;;;;5065924;28;20227;-37
2022/04/14 03:00:06;;;;;;;23.27;18.33;;;14.10;99.90;;;;;;5070429;28;20203;-38
2022/04/14 03:02:39;;;;;;;23.00;17.95;;;14.10;99.90;;;;;;5069915;28;20207;-37
2022/04/14 03:05:07;;;;;;;21.80;17.35;;;14.00;99.90;;;;;;5067943;28;20295;-37
2022/04/14 03:07:34;;;;;;;23.23;17.77;;;14.00;99.90;;;;;;5067713;28;20514;-37
2022/04/14 03:10:05;;;;;;;21.93;17.90;;;14.00;99.90;;;;;;5069365;28;20218;-37
2022/04/14 03:12:43;;;;;;;21.03;17.27;;;14.00;99.90;;;;;;5067729;28;20640;-38
2022/04/14 03:15:16;;;;;;;21.60;16.70;;;14.00;99.90;;;;;;5061236;28;20271;-38
2022/04/14 03:17:43;;;;;;;23.00;17.93;;;14.00;99.90;;;;;;5053615;28;20220;-37
2022/04/14 03:20:13;;;;;;;24.67;18.30;;;14.00;99.90;;;;;;5070431;28;20686;-37
2022/04/14 03:22:45;;;;;;;22.20;18.27;;;14.00;99.90;;;;;;5058214;28;20195;-37
2022/04/14 03:25:14;;;;;;;23.63;18.27;;;14.00;99.90;;;;;;5061412;28;20284;-37
2022/04/14 03:27:42;;;;;;;25.17;19.27;;;13.90;99.90;;;;;;5064616;28;20690;-37
2022/04/14 03:30:13;;;;;;;24.57;18.90;;;13.90;99.90;;;;;;5070351;28;20204;-38
2022/04/14 03:32:43;;;;;;;24.93;19.47;;;13.90;99.90;;;;;;5065936;28;20214;-37
2022/04/14 03:35:14;;;;;;;27.80;20.50;;;13.90;99.90;;;;;;5057094;28;20696;-37
2022/04/14 03:37:44;;;;;;;23.63;19.00;;;13.90;99.90;;;;;;5061779;28;20232;-37
2022/04/14 03:40:14;;;;;;;28.77;20.70;;;13.90;99.90;;;;;;5050393;28;20228;-34
2022/04/14 03:42:45;;;;;;;27.57;20.33;;;13.90;99.90;;;;;;5061797;28;20204;-34
2022/04/14 03:45:12;;;;;;;25.37;19.70;;;13.90;99.90;;;;;;5060172;28;20627;-34
2022/04/14 03:47:42;;;;;;;26.23;21.17;;;13.80;99.90;;;;;;5057619;28;20289;-34
2022/04/14 03:50:11;;;;;;;25.07;19.83;;;13.80;99.90;;;;;;5066847;28;20584;-37
2022/04/14 03:52:43;;;;;;;27.80;20.37;;;13.80;99.90;;;;;;5065707;28;20786;-37
2022/04/14 03:55:13;;;;;;;25.93;20.30;;;13.80;99.90;;;;;;5063863;28;20241;-37
2022/04/14 03:57:43;;;;;;;27.70;21.07;;;13.80;99.90;;;;;;5068321;28;20238;-37
2022/04/14 04:00:10;;;;;;;26.10;19.77;;;13.70;99.90;;;;;;5069102;28;20226;-37
2022/04/14 04:02:40;;;;;;;25.50;19.63;;;13.70;99.90;;;;;;5058152;28;20266;-37
2022/04/14 04:05:08;;;;;;;24.80;18.60;;;13.70;99.90;;;;;;5056992;28;20779;-37
2022/04/14 04:07:38;;;;;;;26.23;19.13;;;13.70;99.90;;;;;;5069126;28;20207;-37
2022/04/14 04:10:08;;;;;;;24.55;18.30;;;13.60;99.90;;;;;;5055729;28;20574;-37
2022/04/14 04:12:38;;;;;;;23.73;19.63;;;13.60;99.90;;;;;;5048191;28;20626;-37
2022/04/14 04:15:10;;;;;;;23.70;18.87;;;13.60;99.90;;;;;;5065962;28;20200;-37
2022/04/14 04:17:41;;;;;;;22.43;19.20;;;13.60;99.90;;;;;;5068968;28;20219;-37
2022/04/14 04:20:11;;;;;;;21.23;17.90;;;13.50;99.90;;;;;;5068465;28;20199;-37
2022/04/14 04:22:43;;;;;;;24.30;18.03;;;13.50;99.90;;;;;;5069294;28;20243;-37
2022/04/14 04:25:11;;;;;;;21.97;17.40;;;13.40;99.90;;;;;;5066440;28;20206;-37
2022/04/14 04:27:38;;;;;;;22.10;18.37;;;13.40;99.90;;;;;;5064472;28;20236;-37
2022/04/14 04:30:07;;;;;;;22.10;17.57;;;13.30;99.90;;;;;;5066681;28;20216;-38
2022/04/14 04:32:39;;;;;;;23.70;18.70;;;13.30;99.90;;;;;;5069157;28;20210;-37
2022/04/14 04:35:11;;;;;;;23.67;17.90;;;13.30;99.90;;;;;;5064157;28;20667;-37
2022/04/14 04:37:38;;;;;;;20.10;17.07;;;13.20;99.90;;;;;;5065048;28;20804;-37
2022/04/14 04:40:08;;;;;;;22.43;17.93;;;13.20;99.90;;;;;;5068532;28;20296;-37
2022/04/14 04:42:38;;;;;;;22.13;18.13;;;13.20;99.90;;;;;;5068266;28;20199;-37
2022/04/14 04:45:08;;;;;;;22.17;18.07;;;13.10;99.90;;;;;;5066198;28;20195;-37
2022/04/14 04:47:35;;;;;;;22.57;17.73;;;13.10;99.90;;;;;;5069899;28;20211;-37
2022/04/14 04:50:07;;;;;;;20.53;17.33;;;13.10;99.90;;;;;;5070663;28;20211;-37
2022/04/14 04:52:41;;;;;;;23.57;18.90;;;13.00;99.90;;;;;;5054112;28;20214;-37
2022/04/14 04:55:09;;;;;;;21.50;18.10;;;13.00;99.90;;;;;;5052168;28;20761;-37
2022/04/14 04:57:39;;;;;;;19.73;17.57;;;13.00;99.90;;;;;;5067089;28;20273;-37
2022/04/14 05:00:10;;;;;;;20.73;17.20;;;13.00;99.90;;;;;;5063054;28;20200;-37
2022/04/14 05:02:38;;;;;;;20.67;17.17;;;12.90;99.90;;;;;;5056414;28;20204;-37
2022/04/14 05:05:06;;;;;;;18.73;16.30;;;12.90;99.90;;;;;;5064919;28;20571;-37
2022/04/14 05:07:33;;;;;;;18.77;16.17;;;12.90;99.90;;;;;;5060895;28;20250;-37
2022/04/14 05:10:02;;;;;;;17.37;15.53;;;12.90;99.90;;;;;;5059030;28;20215;-37
2022/04/14 05:12:32;;;;;;;16.13;14.20;;;12.90;99.90;;;;;;5058118;28;20562;-37
2022/04/14 05:15:02;;;;;;;16.00;14.33;;;12.90;99.90;;;;;;5065227;28;20330;-37
2022/04/14 05:17:29;;;;;;;17.50;15.07;;;12.90;99.90;;;;;;5065761;28;20625;-37
2022/04/14 05:19:58;;;;;;;19.97;15.60;;;12.90;99.90;;;;;;5060891;28;20207;-38
2022/04/14 05:22:26;;;;;;;19.20;16.63;;;12.90;99.90;;;;;;5066801;28;20569;-37
2022/04/14 05:24:56;;;;;;;17.00;15.20;;;12.90;99.90;;;;;;5053674;28;20238;-38
2022/04/14 05:27:28;;;;;;;18.73;15.90;;;12.90;99.90;;;;;;5065044;28;20203;-38
2022/04/14 05:29:57;;;;;;;17.20;15.37;;;12.90;99.90;;;;;;5060370;28;20235;-38
2022/04/14 05:32:24;;;;;;;18.97;16.40;;;12.90;99.90;;;;;;5064294;28;20218;-37
2022/04/14 05:35:01;;;;;;;17.80;16.00;;;12.90;99.90;;;;;;5069657;28;20203;-37
2022/04/14 05:37:30;;;;;;;20.63;17.37;;;12.90;99.90;;;;;;5062334;28;20565;-37
2022/04/14 05:40:01;;;;;;;17.67;15.87;;;12.90;99.90;;;;;;5066894;28;20875;-37
2022/04/14 05:42:30;;;;;;;19.67;16.93;;;12.90;99.90;;;;;;5066839;28;20253;-37
2022/04/14 05:45:01;;;;;;;21.50;17.43;;;12.90;99.90;;;;;;5066169;28;20203;-37
2022/04/14 05:47:31;;;;;;;18.63;16.57;;;12.90;99.90;;;;;;5049875;28;20222;-37
2022/04/14 05:50:00;;;;;;;18.83;16.67;;;12.90;99.90;;;;;;5058159;28;20608;-37
2022/04/14 05:52:28;;;;;;;18.07;16.17;;;12.90;99.90;;;;;;5046982;28;20272;-37
2022/04/14 05:55:01;;;;;;;19.27;17.00;;;12.90;99.90;;;;;;5057392;28;20271;-37
2022/04/14 05:57:31;;;;;;;19.53;17.37;;;12.90;99.90;;;;;;5053889;28;20595;-37
2022/04/14 05:59:58;;;;;;;19.13;17.00;;;12.90;99.90;;;;;;5053343;28;20211;-36
2022/04/14 06:02:28;;;;;;;20.43;17.10;;;12.90;99.90;;;;;;5065471;28;20210;-37
2022/04/14 06:04:58;;;;;;;18.43;16.53;;;13.00;99.90;;;;;;5063859;28;20643;-37
2022/04/14 06:07:30;;;;;;;18.57;16.57;;;13.00;99.90;;;;;;5044818;28;20207;-37
2022/04/14 06:09:59;;;;;;;19.13;17.07;;;13.00;99.90;;;;;;5047103;28;20687;-37
2022/04/14 06:12:27;;;;;;;20.57;17.70;;;13.00;99.90;;;;;;5047629;28;20718;-37
2022/04/14 06:14:54;;;;;;;22.97;18.53;;;13.10;99.90;;;;;;5049868;28;20706;-37
2022/04/14 06:17:24;;;;;;;19.80;17.70;;;13.10;99.90;;;;;;5056500;28;20632;-37
2022/04/14 06:19:51;;;;;;;19.13;17.10;;;13.10;99.90;;;;;;5051609;28;20204;-37
2022/04/14 06:22:21;;;;;;;19.20;17.20;;;13.10;99.90;;;;;;5049757;28;20212;-34
2022/04/14 06:24:50;;;;;;;20.70;18.53;;;13.20;99.90;;;;;;5053773;28;20256;-34
2022/04/14 06:27:19;;;;;;;19.50;17.17;;;13.20;99.90;;;;;;5056925;28;20779;-35
2022/04/14 06:29:47;;;;;;;20.10;17.93;;;13.20;99.90;;;;;;5050822;28;20209;-34
2022/04/14 06:32:14;;;;;;;21.83;17.63;;;13.30;99.90;;;;;;5050940;28;20204;-34
2022/04/14 06:34:43;;;;;;;20.33;17.07;;;13.30;99.90;;;;;;5055597;28;20212;-34
2022/04/14 06:37:15;;;;;;;20.70;16.60;;;13.40;99.90;;;;;;5055599;28;20219;-34
2022/04/14 06:39:46;;;;;;;20.73;17.63;;;13.50;99.90;;;;;;5058326;28;20199;-34
2022/04/14 06:42:14;;;;;;;20.83;17.97;;;13.50;99.90;;;;;;5063121;28;20257;-34
2022/04/14 06:44:43;;;;;;;18.53;16.53;;;13.60;99.90;;;;;;5058585;28;20783;-34
2022/04/14 06:47:13;;;;;;;17.67;15.87;;;13.60;99.90;;;;;;5058528;28;20231;-34
2022/04/14 06:49:41;;;;;;;21.30;17.33;;;13.60;99.90;;;;;;5049601;28;20257;-37
2022/04/14 06:52:11;;;;;;;31.20;19.97;;;13.70;99.90;;;;;;5058823;28;20457;-37
2022/04/14 06:54:38;;;;;;;42.83;19.80;;;13.80;99.90;;;;;;5045986;28;20235;-37
2022/04/14 06:57:08;;;;;;;31.77;18.67;;;13.80;99.90;;;;;;5065911;28;20770;-37
2022/04/14 06:59:39;;;;;;;30.10;18.10;;;13.80;99.90;;;;;;5063930;28;20200;-37
2022/04/14 07:02:09;;;;;;;18.73;15.20;;;13.90;99.90;;;;;;5057740;28;20200;-37
2022/04/14 07:04:39;;;;;;;18.27;15.77;;;13.90;99.90;;;;;;5054160;28;20227;-37
2022/04/14 07:07:08;;;;;;;18.63;16.73;;;13.90;99.90;;;;;;5058067;28;20287;-37
2022/04/14 07:09:39;;;;;;;24.70;19.33;;;13.90;99.90;;;;;;5050803;28;20212;-37
2022/04/14 07:12:10;;;;;;;20.37;18.23;;;13.90;99.90;;;;;;5047215;28;20745;-37
2022/04/14 07:14:39;;;;;;;21.60;19.30;;;14.00;99.90;;;;;;5063016;28;20203;-37
2022/04/14 07:17:07;;;;;;;20.50;18.37;;;14.00;99.90;;;;;;5066802;28;20658;-34
2022/04/14 07:19:34;;;;;;;21.33;18.87;;;14.10;99.90;;;;;;5063210;28;20309;-33
2022/04/14 07:22:04;;;;;;;19.02;17.02;;;14.10;99.90;;;;;;5068542;28;20670;-37
2022/04/14 07:24:31;;;;;;;19.37;17.47;;;14.20;99.90;;;;;;5050249;28;20211;-37
2022/04/14 07:26:58;;;;;;;21.10;18.77;;;14.30;99.90;;;;;;5058921;28;20204;-38
2022/04/14 07:29:30;;;;;;;21.83;19.43;;;14.30;99.90;;;;;;5059057;28;20215;-37
2022/04/14 07:31:57;;;;;;;19.97;17.87;;;14.40;99.90;;;;;;5064464;28;20667;-37
2022/04/14 07:34:27;;;;;;;21.90;19.60;;;14.50;99.90;;;;;;5048270;28;20200;-37
2022/04/14 07:36:55;;;;;;;23.57;19.87;;;14.50;99.90;;;;;;5059591;28;20597;-37
2022/04/14 07:39:22;;;;;;;23.20;19.10;;;14.60;99.90;;;;;;5060305;28;20263;-37
2022/04/14 07:41:54;;;;;;;22.03;19.73;;;14.70;99.90;;;;;;5054114;28;20627;-38
2022/04/14 07:44:24;;;;;;;21.73;19.43;;;14.80;99.90;;;;;;5060394;28;20508;-38
2022/04/14 07:46:53;;;;;;;23.73;19.52;;;14.80;99.90;;;;;;5067086;28;20211;-38
2022/04/14 07:49:21;;;;;;;21.00;18.73;;;15.00;99.90;;;;;;5067406;28;20210;-37
2022/04/14 07:51:48;;;;;;;21.63;19.15;;;15.10;99.90;;;;;;5060272;28;20257;-37
2022/04/14 07:54:18;;;;;;;21.20;18.60;;;15.20;99.90;;;;;;5066639;28;20267;-38
2022/04/14 07:56:48;;;;;;;20.35;18.10;;;15.30;99.90;;;;;;5065054;28;20195;-38
2022/04/14 07:59:15;;;;;;;21.45;19.15;;;15.40;99.90;;;;;;5058658;28;20249;-38
2022/04/14 08:01:45;;;;;;;18.80;16.77;;;15.50;99.90;;;;;;5061123;28;20208;-38
2022/04/14 08:04:14;;;;;;;20.00;17.77;;;15.60;99.90;;;;;;5065848;28;20243;-37
2022/04/14 08:06:42;;;;;;;20.37;17.93;;;15.70;99.90;;;;;;5053655;28;20192;-37
2022/04/14 08:09:15;;;;;;;20.15;17.13;;;15.80;99.90;;;;;;5073519;28;20200;-37
2022/04/14 08:11:46;;;;;;;21.25;17.35;;;15.90;99.90;;;;;;5068165;28;20207;-34
2022/04/14 08:14:15;;;;;;;20.13;17.60;;;16.00;99.90;;;;;;5069575;28;20207;-33
2022/04/14 08:16:45;;;;;;;19.05;17.05;;;16.00;99.90;;;;;;5064871;28;20203;-34
2022/04/14 08:19:12;;;;;;;19.05;15.52;;;16.10;99.90;;;;;;5068735;28;20224;-34
2022/04/14 08:21:42;;;;;;;17.80;15.48;;;16.10;99.90;;;;;;5067676;28;20208;-34
2022/04/14 08:24:09;;;;;;;16.52;14.27;;;16.20;99.90;;;;;;5067466;28;20206;-34
2022/04/14 08:26:38;;;;;;;17.03;15.23;;;16.20;99.90;;;;;;5068829;28;20291;-34
2022/04/14 08:29:06;;;;;;;22.30;16.00;;;16.30;99.90;;;;;;5036501;28;20204;-33
2022/04/14 08:31:43;;;;;;;21.48;16.63;;;16.30;99.90;;;;;;5052592;28;20641;-33
2022/04/14 08:34:11;;;;;;;18.95;15.43;;;16.30;99.90;;;;;;5062220;28;20200;-33
2022/04/14 08:36:38;;;;;;;18.52;16.42;;;16.30;99.90;;;;;;5067279;28;20702;-33
2022/04/14 08:39:05;;;;;;;23.15;16.10;;;16.40;99.90;;;;;;5063184;28;20253;-33
2022/04/14 08:41:36;;;;;;;17.02;15.27;;;16.40;99.90;;;;;;5062169;28;20286;-34
2022/04/14 08:44:10;;;;;;;23.08;16.75;;;16.50;99.90;;;;;;5056354;28;20200;-34
2022/04/14 08:46:42;;;;;;;20.90;16.35;;;16.50;99.90;;;;;;5061454;28;20250;-34
2022/04/14 08:49:10;;;;;;;24.20;17.90;;;16.60;99.90;;;;;;5057099;28;20299;-34
2022/04/14 08:51:43;;;;;;;22.55;16.88;;;16.60;99.90;;;;;;5064242;28;20212;-34
2022/04/14 08:54:13;;;;;;;20.05;15.80;;;16.60;99.90;;;;;;5064291;28;20243;-34
2022/04/14 08:56:41;;;;;;;70.10;24.35;;;16.70;99.90;;;;;;5060929;28;20215;-34
2022/04/14 08:59:12;;;;;;;101.72;30.20;;;16.70;99.90;;;;;;5055939;28;20285;-34
2022/04/14 09:01:40;;;;;;;68.65;24.73;;;16.70;99.90;;;;;;5055627;28;20232;-34
2022/04/14 09:04:16;;;;;;;39.15;19.23;;;16.80;99.90;;;;;;5063876;28;20203;-35
2022/04/14 09:06:43;;;;;;;22.05;16.10;;;16.80;99.90;;;;;;5066871;28;20257;-34
2022/04/14 09:09:14;;;;;;;21.48;16.92;;;16.90;99.90;;;;;;5057671;28;20202;-37
2022/04/14 09:11:44;;;;;;;19.90;15.32;;;16.90;99.90;;;;;;5065689;28;20207;-38
2022/04/14 09:14:15;;;;;;;18.17;15.88;;;16.90;99.90;;;;;;5058320;28;20686;-37
2022/04/14 09:16:48;;;;;;;17.98;14.90;;;17.00;99.90;;;;;;5055483;28;20829;-38
2022/04/14 09:19:15;;;;;;;18.95;13.63;;;17.00;99.90;;;;;;5058669;28;20227;-38
2022/04/14 09:21:58;;;;;;;18.75;14.02;;;17.00;99.90;;;;;;5066705;28;20206;-38
2022/04/14 09:24:45;;;;;;;12.38;10.20;;;17.10;99.90;;;;;;5052325;28;20211;-39
2022/04/14 09:27:24;;;;;;;14.43;9.95;;;17.10;99.90;;;;;;5063823;28;20204;-38
2022/04/14 09:29:55;;;;;;;13.32;10.98;;;17.10;99.90;;;;;;5049350;28;20200;-38
2022/04/14 09:32:35;;;;;;;11.25;10.05;;;17.10;99.90;;;;;;5047728;28;20715;-37
2022/04/14 09:35:31;;;;;;;10.18;8.02;;;17.10;99.90;;;;;;5051387;28;20497;-37
2022/04/14 09:38:03;;;;;;;9.70;7.78;;;17.20;99.90;;;;;;5049428;28;20200;-37
2022/04/14 09:40:37;;;;;;;7.30;6.55;;;17.20;99.90;;;;;;5050865;28;20578;-37
2022/04/14 09:43:05;;;;;;;7.90;7.10;;;17.20;99.90;;;;;;5063507;28;20219;-37
2022/04/14 09:45:38;;;;;;;5.88;5.25;;;17.20;99.90;;;;;;5056962;28;20230;-37
2022/04/14 09:48:07;;;;;;;6.70;5.20;;;17.20;99.90;;;;;;5053324;28;20612;-37
2022/04/14 09:50:43;;;;;;;14.25;6.15;;;17.30;99.90;;;;;;5056441;28;20203;-37
2022/04/14 09:53:12;;;;;;;8.90;6.65;;;17.30;99.90;;;;;;5048433;28;20226;-37
2022/04/14 09:55:40;;;;;;;9.77;5.90;;;17.30;99.90;;;;;;5050802;28;20333;-38
2022/04/14 09:58:16;;;;;;;8.45;4.70;;;17.30;99.90;;;;;;5052292;28;20233;-38
2022/04/14 10:00:50;;;;;;;5.82;3.90;;;17.30;99.90;;;;;;5047873;28;20692;-37
2022/04/14 10:03:21;;;;;;;6.40;3.83;;;17.40;99.90;;;;;;5048346;28;20207;-37
2022/04/14 10:05:52;;;;;;;5.80;3.47;;;17.40;99.90;;;;;;5046027;28;20203;-37
2022/04/14 10:08:20;;;;;;;4.97;4.00;;;17.40;99.90;;;;;;5040902;28;20239;-37
2022/04/14 10:10:48;;;;;;;5.68;4.40;;;17.40;99.90;;;;;;5041440;28;20320;-37
2022/04/14 10:13:17;;;;;;;5.07;2.85;;;17.40;99.90;;;;;;5038391;28;20304;-38
2022/04/14 10:15:48;;;;;;;2.85;1.70;;;17.50;99.90;;;;;;5050829;28;20254;-37
2022/04/14 10:18:18;;;;;;;2.08;1.60;;;17.50;99.90;;;;;;5039297;28;20209;-37
2022/04/14 10:20:46;;;;;;;2.78;1.67;;;17.60;99.90;;;;;;5040880;28;20323;-37
2022/04/14 10:23:15;;;;;;;3.22;1.95;;;17.60;99.90;;;;;;5041865;28;20573;-37
2022/04/14 10:25:45;;;;;;;4.03;2.97;;;17.60;99.90;;;;;;5044675;28;20222;-37
2022/04/14 10:28:14;;;;;;;3.10;2.65;;;17.70;99.90;;;;;;5040194;28;20195;-37
2022/04/14 10:30:49;;;;;;;3.08;1.98;;;17.70;99.90;;;;;;5042749;28;20204;-37
2022/04/14 10:33:22;;;;;;;2.92;1.80;;;17.70;99.90;;;;;;5047232;28;20215;-37
2022/04/14 10:35:52;;;;;;;2.35;1.88;;;17.70;99.90;;;;;;5048455;28;20698;-37
2022/04/14 10:38:28;;;;;;;3.38;2.30;;;17.70;99.90;;;;;;5046401;28;20195;-37
2022/04/14 10:41:06;;;;;;;3.05;1.98;;;17.80;99.90;;;;;;5054535;28;20310;-37
2022/04/14 10:43:44;;;;;;;2.60;2.28;;;17.80;99.90;;;;;;5056057;28;20242;-37
2022/04/14 10:46:17;;;;;;;3.45;2.50;;;17.90;99.90;;;;;;5028930;28;20287;-37
2022/04/14 10:48:45;;;;;;;4.05;2.90;;;17.90;99.90;;;;;;5038233;28;20590;-37
2022/04/14 10:51:19;;;;;;;3.50;3.10;;;17.90;99.90;;;;;;5061261;28;20247;-37
2022/04/14 10:54:01;;;;;;;2.53;1.83;;;18.00;99.90;;;;;;5063093;28;20219;-38
2022/04/14 10:56:36;;;;;;;1.40;0.80;;;18.10;99.90;;;;;;5064560;28;20241;-38
2022/04/14 10:59:13;;;;;;;1.27;0.80;;;18.10;99.90;;;;;;5066777;28;20254;-38
2022/04/14 11:04:38;;;;;;;2.75;1.27;;;18.20;99.90;;;;;;5053903;28;20252;-38
2022/04/14 11:07:14;;;;;;;3.58;1.40;;;18.20;99.90;;;;;;5058533;28;20228;-37
2022/04/14 11:09:47;;;;;;;2.00;1.50;;;18.20;99.90;;;;;;5049102;28;20287;-38
2022/04/14 11:12:18;;;;;;;5.00;1.92;;;18.20;99.90;;;;;;5066585;28;20215;-37
2022/04/14 11:14:56;;;;;;;1.83;1.20;;;18.30;99.90;;;;;;5067280;28;20213;-37
2022/04/14 11:17:38;;;;;;;2.83;1.63;;;18.30;99.90;;;;;;5060330;28;20655;-37
2022/04/14 11:20:24;;;;;;;3.28;2.00;;;18.30;99.90;;;;;;5058870;28;20223;-37
2022/04/14 11:23:08;;;;;;;3.90;1.90;;;18.30;99.90;;;;;;5069603;28;20242;-37
2022/04/14 11:28:20;;;;;;;3.60;1.77;;;18.30;99.90;;;;;;5068388;28;20670;-37
2022/04/14 11:31:04;;;;;;;4.22;2.50;;;18.30;99.90;;;;;;5043375;28;20202;-37
2022/04/14 11:33:35;;;;;;;3.00;2.38;;;18.30;99.90;;;;;;5059667;28;20195;-38
2022/04/14 11:36:14;;;;;;;4.95;2.50;;;18.40;99.90;;;;;;5059649;28;20204;-37
2022/04/14 11:39:17;;;;;;;3.05;2.75;;;18.50;99.90;;;;;;5063439;28;20220;-44
2022/04/14 11:41:55;;;;;;;3.15;2.40;;;18.50;99.90;;;;;;5054197;28;21098;-36
2022/04/14 11:44:31;;;;;;;3.90;2.58;;;18.50;99.90;;;;;;5058305;28;20276;-36
2022/04/14 11:47:02;;;;;;;5.78;2.95;;;18.60;99.90;;;;;;5063042;28;20196;-38
2022/04/14 11:49:35;;;;;;;4.40;2.33;;;18.70;99.90;;;;;;5065680;28;20294;-37
2022/04/14 11:52:04;;;;;;;5.18;2.70;;;18.70;99.90;;;;;;5057340;28;20224;-37
2022/04/14 11:54:31;;;;;;;3.17;2.30;;;18.80;99.90;;;;;;5048325;28;20710;-36
2022/04/14 11:57:13;;;;;;;7.07;2.20;;;18.90;99.90;;;;;;5078383;28;20263;-36
2022/04/14 11:59:41;;;;;;;5.07;2.63;;;18.90;99.90;;;;;;5056428;28;20230;-37
2022/04/14 12:02:14;;;;;;;6.07;2.72;;;19.00;99.90;;;;;;5061989;28;20306;-37
2022/04/14 12:04:51;;;;;;;6.30;2.58;;;19.10;99.90;;;;;;5061330;28;20202;-38
2022/04/14 12:07:21;;;;;;;5.25;2.65;;;19.10;99.90;;;;;;5061946;28;20206;-36
2022/04/14 12:09:58;;;;;;;4.63;2.85;;;19.20;99.90;;;;;;5057530;28;20208;-36
2022/04/14 12:12:33;;;;;;;4.78;2.22;;;19.30;99.90;;;;;;5067014;28;20211;-37
2022/04/14 12:15:04;;;;;;;6.15;3.60;;;19.40;99.90;;;;;;5066354;28;20296;-37
2022/04/14 12:17:35;;;;;;;5.50;3.63;;;19.50;99.90;;;;;;5063247;28;20216;-37
2022/04/14 12:20:10;;;;;;;5.63;3.83;;;19.60;99.90;;;;;;5067294;28;20311;-36
2022/04/14 12:22:38;;;;;;;6.78;4.38;;;19.70;99.90;;;;;;5069590;28;20545;-36
2022/04/14 12:25:11;;;;;;;6.25;5.10;;;19.80;99.90;;;;;;5067324;28;20678;-37
2022/04/14 12:27:38;;;;;;;7.57;5.20;;;19.90;99.90;;;;;;5052742;28;20216;-37
2022/04/14 12:30:10;;;;;;;7.60;5.20;;;19.90;99.90;;;;;;5077434;28;20203;-37
2022/04/14 12:32:44;;;;;;;6.75;4.80;;;19.90;99.90;;;;;;5059210;28;20223;-37
2022/04/14 12:35:31;;;;;;;5.82;4.05;;;20.00;99.90;;;;;;5058580;28;20224;-37
2022/04/14 12:38:21;;;;;;;7.10;3.85;;;20.00;99.90;;;;;;5055403;28;20609;-37
2022/04/14 12:41:05;;;;;;;6.68;4.20;;;20.10;99.90;;;;;;5062193;28;20251;-37
2022/04/14 12:43:41;;;;;;;8.82;4.82;;;20.10;99.90;;;;;;5059807;28;20749;-37
2022/04/14 12:46:39;;;;;;;7.88;5.03;;;20.20;99.90;;;;;;5054006;28;20200;-36
2022/04/14 12:49:10;;;;;;;7.25;4.47;;;20.30;99.90;;;;;;5051257;28;20302;-37
2022/04/14 12:52:01;;;;;;;7.60;5.38;;;20.30;99.90;;;;;;5053108;28;20277;-36
2022/04/14 12:54:34;;;;;;;5.82;4.93;;;20.30;99.90;;;;;;5067693;28;20281;-36